Centerville, Iowa
Current Conditions -  °F | °C
As of 1:10 AM on Thursday 18 Dec 2014 (Local Time) from KTVK Reporting Station
Overcast Overcast  
Wind Chill: 25°   Ceiling: 8500
Heat Index: 25°   Visibility: 10mi
Dew Point: 19°   Wind: 0mph
Humidity: 80%   Direction: NA
Pressure: 30.3"   Gusts: NA
Location:  40.73°N, 92.87°W
Report Text: KTVK 180710Z AUTO 00000KT 10SM OVC085 M04/M07 A3030 RMK AO2
Loading
Personal Weather Stations






























Interactive Weather Map New forecast layout! Learn more

10-Day Weather Forecast

Advertisements
Track Severe Weather on mobile